createdAt,value
2019-05-19T00:00:02.822Z,95.70
2019-05-19T00:05:07.530Z,95.70
2019-05-19T00:10:12.106Z,95.70
2019-05-19T00:15:16.705Z,95.70
2019-05-19T00:20:21.109Z,95.70
2019-05-19T00:25:25.725Z,95.70
2019-05-19T00:30:30.205Z,95.70
2019-05-19T00:35:35.466Z,95.70
2019-05-19T00:40:39.934Z,95.70
2019-05-19T00:45:44.451Z,95.70
2019-05-19T00:50:49.021Z,95.70
2019-05-19T00:55:53.724Z,95.50
2019-05-19T01:00:58.292Z,95.50
2019-05-19T01:06:02.785Z,95.70
2019-05-19T01:11:07.458Z,95.70
2019-05-19T01:16:11.881Z,95.70
2019-05-19T01:21:16.954Z,95.70
2019-05-19T01:26:21.461Z,95.70
2019-05-19T01:31:25.920Z,95.50
2019-05-19T01:36:30.433Z,95.60
2019-05-19T01:41:34.908Z,95.70
2019-05-19T01:46:39.390Z,95.70
2019-05-19T01:51:43.883Z,95.70
2019-05-19T01:56:48.319Z,95.70
2019-05-19T02:01:52.800Z,95.70
2019-05-19T02:06:57.377Z,95.70
2019-05-19T02:12:01.990Z,95.70
2019-05-19T02:17:06.680Z,95.70
2019-05-19T02:22:11.258Z,95.70
2019-05-19T02:27:15.773Z,95.70
2019-05-19T02:32:20.387Z,95.70
2019-05-19T02:37:24.862Z,95.50
2019-05-19T02:42:31.612Z,95.70
2019-05-19T02:47:37.979Z,95.70
2019-05-19T02:52:44.329Z,95.70
2019-05-19T02:57:51.186Z,95.70
2019-05-19T03:02:55.592Z,95.70
2019-05-19T03:08:00.023Z,95.70
2019-05-19T03:13:04.583Z,95.70
2019-05-19T03:18:09.008Z,95.70
2019-05-19T03:23:13.417Z,95.70
2019-05-19T03:28:17.910Z,95.70
2019-05-19T03:33:24.597Z,95.70
2019-05-19T03:38:29.007Z,95.70
2019-05-19T03:43:33.433Z,95.70
2019-05-19T03:48:37.886Z,95.70
2019-05-19T03:53:42.293Z,95.70
2019-05-19T03:58:46.746Z,95.70
2019-05-19T04:03:51.180Z,95.70
2019-05-19T04:08:55.704Z,95.70
2019-05-19T04:14:00.104Z,95.70
2019-05-19T04:19:04.672Z,95.70
2019-05-19T04:24:09.240Z,95.70
2019-05-19T04:29:13.664Z,95.70
2019-05-19T04:34:18.256Z,95.70
2019-05-19T04:39:22.681Z,95.70
2019-05-19T04:44:27.477Z,95.70
2019-05-19T04:49:31.961Z,95.70
2019-05-19T04:54:36.445Z,95.20
2019-05-19T04:59:40.958Z,95.60
2019-05-19T05:04:45.539Z,95.30
2019-05-19T05:09:50.030Z,95.70
2019-05-19T05:14:54.464Z,95.60
2019-05-19T05:19:58.882Z,95.40
2019-05-19T05:25:04.502Z,95.40
2019-05-19T05:30:10.624Z,95.30
2019-05-19T05:35:15.185Z,95.20
2019-05-19T05:40:19.783Z,95.30
2019-05-19T05:45:24.286Z,95.50
2019-05-19T05:50:28.803Z,94.20
2019-05-19T05:55:33.326Z,94.90
2019-05-19T06:00:37.915Z,95.00
2019-05-19T06:05:42.405Z,94.70
2019-05-19T06:10:46.905Z,95.00
2019-05-19T06:15:51.340Z,94.90
2019-05-19T06:20:55.910Z,94.80
2019-05-19T06:26:00.531Z,94.50
2019-05-19T06:31:05.168Z,94.50
2019-05-19T06:36:09.969Z,94.40
2019-05-19T06:41:14.645Z,93.80
2019-05-19T06:46:19.220Z,93.90
2019-05-19T06:51:23.774Z,93.20
2019-05-19T06:56:28.347Z,93.50
2019-05-19T07:01:32.787Z,92.90
2019-05-19T07:06:37.458Z,92.90
2019-05-19T07:11:42.260Z,93.20
2019-05-19T07:16:46.757Z,92.60
2019-05-19T07:21:51.378Z,93.60
2019-05-19T07:26:56.043Z,93.00
2019-05-19T07:32:00.835Z,92.70
2019-05-19T07:37:05.646Z,92.80
2019-05-19T07:42:10.832Z,92.70
2019-05-19T07:47:16.139Z,92.50
2019-05-19T07:52:21.045Z,92.90
2019-05-19T07:57:25.639Z,92.50
2019-05-19T08:02:30.212Z,92.00
2019-05-19T08:07:35.016Z,91.60
2019-05-19T08:12:39.820Z,90.80
2019-05-19T08:17:45.377Z,91.70
2019-05-19T08:22:51.343Z,91.50
2019-05-19T08:28:06.432Z,90.70
2019-05-19T08:33:02.981Z,90.40
2019-05-19T08:38:07.598Z,91.20
2019-05-19T08:43:14.165Z,90.80
2019-05-19T08:48:19.099Z,90.80
2019-05-19T08:53:25.096Z,91.10
2019-05-19T08:58:30.481Z,89.30
2019-05-19T09:03:35.202Z,87.90
2019-05-19T09:08:40.162Z,87.10
2019-05-19T09:13:46.461Z,86.60
2019-05-19T09:18:51.394Z,87.60
2019-05-19T09:23:57.512Z,84.20
2019-05-19T09:29:02.093Z,82.50
2019-05-19T09:34:07.237Z,79.40
2019-05-19T09:39:12.674Z,80.70
2019-05-19T09:44:22.756Z,80.60
2019-05-19T09:49:35.127Z,81.70
2019-05-19T09:54:45.206Z,81.00
2019-05-19T09:59:47.171Z,80.80
2019-05-19T10:04:51.761Z,79.50
2019-05-19T10:10:02.306Z,79.00
2019-05-19T10:15:08.029Z,79.80
2019-05-19T10:20:16.929Z,79.10
2019-05-19T10:25:23.046Z,78.30
2019-05-19T10:30:27.985Z,79.10
2019-05-19T10:35:32.402Z,79.40
2019-05-19T10:40:36.955Z,79.80
2019-05-19T10:45:41.381Z,79.40
2019-05-19T10:50:45.813Z,80.60
2019-05-19T10:55:50.507Z,79.60
2019-05-19T11:00:55.012Z,79.90
2019-05-19T11:05:59.437Z,78.90
2019-05-19T11:11:04.174Z,77.70
2019-05-19T11:16:08.765Z,77.50
2019-05-19T11:21:13.262Z,75.40
2019-05-19T11:26:17.738Z,74.80
2019-05-19T11:31:22.316Z,74.30
2019-05-19T11:36:27.079Z,74.10
2019-05-19T11:41:31.589Z,74.10
2019-05-19T11:46:36.166Z,73.10
2019-05-19T11:51:40.577Z,73.40
2019-05-19T11:56:47.496Z,73.60
2019-05-19T12:01:51.995Z,71.20
2019-05-19T12:06:56.504Z,72.80
2019-05-19T12:12:01.034Z,72.70
2019-05-19T12:17:05.449Z,73.20
2019-05-19T12:22:10.165Z,72.90
2019-05-19T12:27:14.605Z,70.90
2019-05-19T12:32:21.219Z,71.80
2019-05-19T12:37:27.200Z,70.70
2019-05-19T12:42:31.679Z,71.10
2019-05-19T12:47:36.259Z,70.60
2019-05-19T12:52:40.755Z,70.40
2019-05-19T12:57:45.243Z,71.40
2019-05-19T13:02:49.714Z,71.00
2019-05-19T13:07:54.202Z,70.90
2019-05-19T13:12:58.786Z,71.10
2019-05-19T13:18:03.362Z,70.90
2019-05-19T13:23:07.845Z,71.70
2019-05-19T13:28:13.245Z,71.60
2019-05-19T13:33:17.758Z,71.80
2019-05-19T13:38:22.271Z,70.10
2019-05-19T13:43:27.817Z,71.30
2019-05-19T13:48:32.684Z,72.20
2019-05-19T13:53:37.123Z,70.70
2019-05-19T13:58:41.731Z,71.80
2019-05-19T14:03:46.226Z,70.10
2019-05-19T14:12:36.115Z,73.20
2019-05-19T14:17:40.754Z,69.80
2019-05-19T14:22:45.188Z,71.10
2019-05-19T14:27:49.709Z,71.60
2019-05-19T14:32:57.353Z,71.10
2019-05-19T14:38:00.434Z,71.10
2019-05-19T14:43:05.508Z,70.30
2019-05-19T14:48:09.934Z,70.70
2019-05-19T14:53:14.455Z,71.80
2019-05-19T14:58:19.013Z,69.90
2019-05-19T15:03:23.422Z,70.60
2019-05-19T15:08:27.847Z,70.30
2019-05-19T15:13:32.343Z,71.10
2019-05-19T15:18:36.847Z,70.70
2019-05-19T15:23:41.523Z,71.30
2019-05-19T15:28:46.305Z,70.90
2019-05-19T15:33:50.839Z,72.10
2019-05-19T15:38:55.602Z,73.20
2019-05-19T15:44:00.239Z,74.00
2019-05-19T15:49:04.852Z,75.30
2019-05-19T15:54:09.316Z,76.40
2019-05-19T15:59:13.861Z,77.30
2019-05-19T16:04:18.539Z,78.20
2019-05-19T16:09:23.096Z,79.50
2019-05-19T16:14:30.722Z,79.80
2019-05-19T16:19:35.292Z,80.80
2019-05-19T16:24:39.694Z,81.60
2019-05-19T16:29:44.111Z,82.00
2019-05-19T16:34:48.918Z,81.90
2019-05-19T16:39:53.352Z,82.20
2019-05-19T16:44:58.838Z,82.80
2019-05-19T16:50:03.969Z,83.00
2019-05-19T16:55:25.339Z,83.60
2019-05-19T17:00:30.469Z,83.70
2019-05-19T17:05:35.424Z,83.40
2019-05-19T17:10:39.933Z,83.70
2019-05-19T17:15:44.687Z,83.60
2019-05-19T17:20:49.205Z,84.80
2019-05-19T17:25:53.778Z,85.10
2019-05-19T17:30:58.346Z,85.80
2019-05-19T17:36:02.862Z,86.20
2019-05-19T17:41:07.413Z,86.60
2019-05-19T17:46:12.033Z,86.80
2019-05-19T17:51:16.604Z,87.20
2019-05-19T17:56:22.635Z,87.80
2019-05-19T18:01:28.213Z,88.70
2019-05-19T18:06:32.935Z,89.30
2019-05-19T18:11:37.349Z,90.20
2019-05-19T18:16:43.656Z,90.60
2019-05-19T18:21:48.675Z,90.60
2019-05-19T18:26:53.351Z,91.00
2019-05-19T18:31:57.896Z,90.30
2019-05-19T18:37:02.784Z,90.70
2019-05-19T18:42:07.661Z,90.70
2019-05-19T18:47:12.283Z,90.80
2019-05-19T18:52:17.500Z,91.00
2019-05-19T18:57:22.521Z,91.20
2019-05-19T19:02:27.376Z,91.80
2019-05-19T19:07:48.836Z,92.00
2019-05-19T19:12:53.624Z,92.00
2019-05-19T19:17:58.951Z,93.00
2019-05-19T19:23:04.048Z,93.50
2019-05-19T19:28:08.795Z,93.90
2019-05-19T19:33:13.833Z,93.80
2019-05-19T19:38:19.305Z,94.00
2019-05-19T19:43:24.091Z,94.10
2019-05-19T19:48:29.557Z,94.70
2019-05-19T19:53:34.453Z,95.00
2019-05-19T19:58:39.666Z,95.60
2019-05-19T20:03:44.778Z,95.70
2019-05-19T20:08:49.847Z,95.70
2019-05-19T20:13:54.478Z,95.70
2019-05-19T20:18:59.413Z,95.70
2019-05-19T20:24:04.826Z,95.70
2019-05-19T20:29:09.906Z,95.60
2019-05-19T20:34:15.564Z,95.50
2019-05-19T20:39:23.291Z,95.70
2019-05-19T20:44:28.495Z,95.20
2019-05-19T20:49:33.762Z,95.00
2019-05-19T20:54:38.886Z,94.80
2019-05-19T20:59:43.384Z,94.70
2019-05-19T21:04:47.805Z,94.90
2019-05-19T21:09:52.219Z,95.10
2019-05-19T21:14:56.690Z,95.20
2019-05-19T21:20:01.203Z,95.50
2019-05-19T21:25:07.782Z,95.70
2019-05-19T21:30:12.461Z,95.70
2019-05-19T21:35:16.964Z,95.70
2019-05-19T21:40:21.452Z,95.70
2019-05-19T21:45:25.976Z,95.70
2019-05-19T21:50:30.481Z,95.70
2019-05-19T21:55:35.039Z,95.70
2019-05-19T22:00:39.683Z,95.70
2019-05-19T22:05:52.913Z,95.70
2019-05-19T22:10:50.490Z,95.70
2019-05-19T22:16:10.175Z,95.70
2019-05-19T22:21:01.275Z,95.70
2019-05-19T22:26:05.776Z,95.70
2019-05-19T22:31:10.401Z,95.70
2019-05-19T22:36:14.910Z,95.70
2019-05-19T22:41:19.422Z,95.70
2019-05-19T22:46:23.926Z,95.70
2019-05-19T22:51:28.477Z,95.70
2019-05-19T22:56:32.976Z,95.70
2019-05-19T23:01:51.042Z,95.70
2019-05-19T23:06:43.750Z,95.70
2019-05-19T23:11:48.272Z,95.70
2019-05-19T23:16:52.741Z,95.70
2019-05-19T23:21:57.243Z,95.70
2019-05-19T23:27:01.754Z,95.70
2019-05-19T23:32:07.411Z,95.70
2019-05-19T23:37:11.947Z,95.70
2019-05-19T23:42:16.438Z,95.70
2019-05-19T23:47:21.952Z,95.70
2019-05-19T23:52:26.387Z,95.70
2019-05-19T23:57:30.806Z,95.70
